sensor_id;sensor_type;location;lat;lon;timestamp;P1;durP1;ratioP1;P2;durP2;ratioP2
17714;SDS011;8977;50.902;4.314;2023-03-14T00:02:02;5.17;;;1.47;;
17714;SDS011;8977;50.902;4.314;2023-03-14T00:04:29;6.50;;;1.57;;
17714;SDS011;8977;50.902;4.314;2023-03-14T00:06:56;5.83;;;1.43;;
17714;SDS011;8977;50.902;4.314;2023-03-14T00:09:23;7.00;;;1.33;;
17714;SDS011;8977;50.902;4.314;2023-03-14T00:11:52;6.40;;;1.60;;
17714;SDS011;8977;50.902;4.314;2023-03-14T00:14:19;3.57;;;1.23;;
17714;SDS011;8977;50.902;4.314;2023-03-14T00:16:47;5.80;;;1.30;;
17714;SDS011;8977;50.902;4.314;2023-03-14T00:19:14;4.23;;;1.30;;
17714;SDS011;8977;50.902;4.314;2023-03-14T00:21:41;3.60;;;1.33;;
17714;SDS011;8977;50.902;4.314;2023-03-14T00:24:08;7.00;;;1.57;;
17714;SDS011;8977;50.902;4.314;2023-03-14T00:26:35;4.40;;;1.20;;
17714;SDS011;8977;50.902;4.314;2023-03-14T00:29:02;9.43;;;1.97;;
17714;SDS011;8977;50.902;4.314;2023-03-14T00:31:29;6.80;;;1.60;;
17714;SDS011;8977;50.902;4.314;2023-03-14T00:33:57;4.40;;;1.40;;
17714;SDS011;8977;50.902;4.314;2023-03-14T00:36:24;8.53;;;1.93;;
17714;SDS011;8977;50.902;4.314;2023-03-14T00:38:51;7.10;;;2.03;;
17714;SDS011;8977;50.902;4.314;2023-03-14T00:41:18;10.30;;;2.13;;
17714;SDS011;8977;50.902;4.314;2023-03-14T00:43:47;8.93;;;1.97;;
17714;SDS011;8977;50.902;4.314;2023-03-14T00:46:15;4.83;;;1.70;;
17714;SDS011;8977;50.902;4.314;2023-03-14T00:48:42;7.40;;;1.80;;
17714;SDS011;8977;50.902;4.314;2023-03-14T00:51:11;5.77;;;1.60;;
17714;SDS011;8977;50.902;4.314;2023-03-14T00:53:40;7.83;;;1.77;;
17714;SDS011;8977;50.902;4.314;2023-03-14T00:56:08;7.10;;;1.70;;
17714;SDS011;8977;50.902;4.314;2023-03-14T00:58:36;5.90;;;1.73;;
17714;SDS011;8977;50.902;4.314;2023-03-14T01:01:07;5.57;;;1.80;;
17714;SDS011;8977;50.902;4.314;2023-03-14T01:03:34;5.40;;;1.67;;
17714;SDS011;8977;50.902;4.314;2023-03-14T01:06:09;7.17;;;1.57;;
17714;SDS011;8977;50.902;4.314;2023-03-14T01:08:39;5.90;;;1.90;;
17714;SDS011;8977;50.902;4.314;2023-03-14T01:11:07;5.17;;;1.37;;
17714;SDS011;8977;50.902;4.314;2023-03-14T01:13:35;8.10;;;1.80;;
17714;SDS011;8977;50.902;4.314;2023-03-14T01:16:03;9.07;;;2.07;;
17714;SDS011;8977;50.902;4.314;2023-03-14T01:18:32;7.40;;;1.60;;
17714;SDS011;8977;50.902;4.314;2023-03-14T01:21:00;5.50;;;1.73;;
17714;SDS011;8977;50.902;4.314;2023-03-14T01:23:28;6.43;;;1.80;;
17714;SDS011;8977;50.902;4.314;2023-03-14T01:25:55;5.90;;;1.90;;
17714;SDS011;8977;50.902;4.314;2023-03-14T01:28:22;8.60;;;1.60;;
17714;SDS011;8977;50.902;4.314;2023-03-14T01:30:49;6.77;;;1.83;;
17714;SDS011;8977;50.902;4.314;2023-03-14T01:33:16;8.67;;;2.40;;
17714;SDS011;8977;50.902;4.314;2023-03-14T01:35:43;7.33;;;2.03;;
17714;SDS011;8977;50.902;4.314;2023-03-14T01:38:09;6.60;;;2.00;;
17714;SDS011;8977;50.902;4.314;2023-03-14T01:40:42;8.77;;;1.87;;
17714;SDS011;8977;50.902;4.314;2023-03-14T01:43:14;6.77;;;1.90;;
17714;SDS011;8977;50.902;4.314;2023-03-14T01:48:46;6.07;;;1.70;;
17714;SDS011;8977;50.902;4.314;2023-03-14T01:51:18;6.03;;;1.40;;
17714;SDS011;8977;50.902;4.314;2023-03-14T01:53:47;6.33;;;1.63;;
17714;SDS011;8977;50.902;4.314;2023-03-14T01:56:17;8.07;;;1.60;;
17714;SDS011;8977;50.902;4.314;2023-03-14T01:58:46;5.37;;;1.40;;
17714;SDS011;8977;50.902;4.314;2023-03-14T02:01:17;4.90;;;1.40;;
17714;SDS011;8977;50.902;4.314;2023-03-14T02:03:48;5.47;;;1.43;;
17714;SDS011;8977;50.902;4.314;2023-03-14T02:06:19;2.63;;;1.10;;
17714;SDS011;8977;50.902;4.314;2023-03-14T02:08:50;2.67;;;1.20;;
17714;SDS011;8977;50.902;4.314;2023-03-14T02:11:19;3.60;;;1.30;;
17714;SDS011;8977;50.902;4.314;2023-03-14T02:13:46;5.10;;;1.17;;
17714;SDS011;8977;50.902;4.314;2023-03-14T02:16:14;6.27;;;1.73;;
17714;SDS011;8977;50.902;4.314;2023-03-14T02:18:41;4.17;;;1.23;;
17714;SDS011;8977;50.902;4.314;2023-03-14T02:21:10;4.77;;;1.33;;
17714;SDS011;8977;50.902;4.314;2023-03-14T02:23:43;3.33;;;0.90;;
17714;SDS011;8977;50.902;4.314;2023-03-14T02:26:19;4.80;;;1.50;;
17714;SDS011;8977;50.902;4.314;2023-03-14T02:28:51;4.07;;;0.87;;
17714;SDS011;8977;50.902;4.314;2023-03-14T02:31:19;3.77;;;1.03;;
17714;SDS011;8977;50.902;4.314;2023-03-14T02:33:47;4.70;;;1.47;;
17714;SDS011;8977;50.902;4.314;2023-03-14T02:36:14;2.73;;;1.23;;
17714;SDS011;8977;50.902;4.314;2023-03-14T02:38:45;3.07;;;1.17;;
17714;SDS011;8977;50.902;4.314;2023-03-14T02:41:16;4.50;;;1.10;;
17714;SDS011;8977;50.902;4.314;2023-03-14T02:43:43;1.73;;;0.80;;
17714;SDS011;8977;50.902;4.314;2023-03-14T02:46:13;2.90;;;1.03;;
17714;SDS011;8977;50.902;4.314;2023-03-14T02:48:45;4.47;;;1.30;;
17714;SDS011;8977;50.902;4.314;2023-03-14T02:51:16;3.80;;;1.47;;
17714;SDS011;8977;50.902;4.314;2023-03-14T02:53:43;4.37;;;1.17;;
17714;SDS011;8977;50.902;4.314;2023-03-14T02:56:10;4.60;;;1.43;;
17714;SDS011;8977;50.902;4.314;2023-03-14T02:58:37;4.63;;;1.43;;
17714;SDS011;8977;50.902;4.314;2023-03-14T03:01:05;4.27;;;1.33;;
17714;SDS011;8977;50.902;4.314;2023-03-14T03:03:33;2.70;;;1.20;;
17714;SDS011;8977;50.902;4.314;2023-03-14T03:06:00;4.40;;;1.40;;
17714;SDS011;8977;50.902;4.314;2023-03-14T03:08:28;5.53;;;1.97;;
17714;SDS011;8977;50.902;4.314;2023-03-14T03:10:56;7.77;;;2.83;;
17714;SDS011;8977;50.902;4.314;2023-03-14T03:13:24;6.53;;;3.13;;
17714;SDS011;8977;50.902;4.314;2023-03-14T03:15:51;6.93;;;2.97;;
17714;SDS011;8977;50.902;4.314;2023-03-14T03:18:18;6.77;;;3.40;;
17714;SDS011;8977;50.902;4.314;2023-03-14T03:20:47;8.67;;;3.30;;
17714;SDS011;8977;50.902;4.314;2023-03-14T03:23:14;9.63;;;3.40;;
17714;SDS011;8977;50.902;4.314;2023-03-14T03:25:41;7.77;;;3.90;;
17714;SDS011;8977;50.902;4.314;2023-03-14T03:28:07;8.47;;;3.63;;
17714;SDS011;8977;50.902;4.314;2023-03-14T03:30:37;7.63;;;3.60;;
17714;SDS011;8977;50.902;4.314;2023-03-14T03:33:04;10.30;;;3.63;;
17714;SDS011;8977;50.902;4.314;2023-03-14T03:35:31;8.30;;;3.40;;
17714;SDS011;8977;50.902;4.314;2023-03-14T03:38:00;7.93;;;3.20;;
17714;SDS011;8977;50.902;4.314;2023-03-14T03:40:26;7.03;;;2.90;;
17714;SDS011;8977;50.902;4.314;2023-03-14T03:42:53;8.00;;;2.70;;
17714;SDS011;8977;50.902;4.314;2023-03-14T03:45:20;6.70;;;2.70;;
17714;SDS011;8977;50.902;4.314;2023-03-14T03:47:47;8.37;;;2.67;;
17714;SDS011;8977;50.902;4.314;2023-03-14T03:50:14;9.67;;;2.93;;
17714;SDS011;8977;50.902;4.314;2023-03-14T03:52:42;7.63;;;2.60;;
17714;SDS011;8977;50.902;4.314;2023-03-14T03:55:10;10.57;;;2.70;;
17714;SDS011;8977;50.902;4.314;2023-03-14T03:57:38;8.67;;;2.80;;
17714;SDS011;8977;50.902;4.314;2023-03-14T04:00:05;7.27;;;2.20;;
17714;SDS011;8977;50.902;4.314;2023-03-14T04:02:34;7.70;;;2.17;;
17714;SDS011;8977;50.902;4.314;2023-03-14T04:05:01;4.30;;;2.00;;
17714;SDS011;8977;50.902;4.314;2023-03-14T04:07:28;7.17;;;1.80;;
17714;SDS011;8977;50.902;4.314;2023-03-14T04:09:57;8.90;;;1.90;;
17714;SDS011;8977;50.902;4.314;2023-03-14T04:12:25;6.53;;;1.77;;
17714;SDS011;8977;50.902;4.314;2023-03-14T04:14:52;5.57;;;1.90;;
17714;SDS011;8977;50.902;4.314;2023-03-14T04:17:19;5.57;;;2.03;;
17714;SDS011;8977;50.902;4.314;2023-03-14T04:19:46;4.53;;;1.77;;
17714;SDS011;8977;50.902;4.314;2023-03-14T04:22:15;4.37;;;1.87;;
17714;SDS011;8977;50.902;4.314;2023-03-14T04:24:42;4.70;;;1.40;;
17714;SDS011;8977;50.902;4.314;2023-03-14T04:27:09;3.83;;;1.10;;
17714;SDS011;8977;50.902;4.314;2023-03-14T04:29:37;4.70;;;1.50;;
17714;SDS011;8977;50.902;4.314;2023-03-14T04:32:04;3.67;;;1.30;;
17714;SDS011;8977;50.902;4.314;2023-03-14T04:34:31;3.93;;;1.37;;
17714;SDS011;8977;50.902;4.314;2023-03-14T04:36:58;4.53;;;1.73;;
17714;SDS011;8977;50.902;4.314;2023-03-14T04:39:25;2.40;;;1.10;;
17714;SDS011;8977;50.902;4.314;2023-03-14T04:41:52;4.67;;;1.70;;
17714;SDS011;8977;50.902;4.314;2023-03-14T04:44:19;3.37;;;1.60;;
17714;SDS011;8977;50.902;4.314;2023-03-14T04:46:47;3.00;;;1.70;;
17714;SDS011;8977;50.902;4.314;2023-03-14T04:49:14;3.07;;;1.30;;
17714;SDS011;8977;50.902;4.314;2023-03-14T04:51:41;4.20;;;1.77;;
17714;SDS011;8977;50.902;4.314;2023-03-14T04:54:08;3.13;;;1.40;;
17714;SDS011;8977;50.902;4.314;2023-03-14T04:56:36;4.83;;;2.37;;
17714;SDS011;8977;50.902;4.314;2023-03-14T04:59:03;4.20;;;2.27;;
17714;SDS011;8977;50.902;4.314;2023-03-14T05:01:30;2.20;;;1.40;;
17714;SDS011;8977;50.902;4.314;2023-03-14T05:03:58;7.03;;;2.83;;
17714;SDS011;8977;50.902;4.314;2023-03-14T05:06:25;2.87;;;1.23;;
17714;SDS011;8977;50.902;4.314;2023-03-14T05:08:52;3.53;;;1.50;;
17714;SDS011;8977;50.902;4.314;2023-03-14T05:11:19;2.63;;;1.47;;
17714;SDS011;8977;50.902;4.314;2023-03-14T05:13:46;4.30;;;2.13;;
17714;SDS011;8977;50.902;4.314;2023-03-14T05:16:13;3.73;;;1.70;;
17714;SDS011;8977;50.902;4.314;2023-03-14T05:18:40;3.77;;;1.47;;
17714;SDS011;8977;50.902;4.314;2023-03-14T05:21:08;3.33;;;1.80;;
17714;SDS011;8977;50.902;4.314;2023-03-14T05:23:35;3.80;;;1.80;;
17714;SDS011;8977;50.902;4.314;2023-03-14T05:26:02;3.67;;;1.90;;
17714;SDS011;8977;50.902;4.314;2023-03-14T05:28:29;3.47;;;2.00;;
17714;SDS011;8977;50.902;4.314;2023-03-14T05:30:55;3.80;;;2.10;;
17714;SDS011;8977;50.902;4.314;2023-03-14T05:33:22;3.13;;;1.93;;
17714;SDS011;8977;50.902;4.314;2023-03-14T05:35:49;4.67;;;2.33;;
17714;SDS011;8977;50.902;4.314;2023-03-14T05:38:17;5.30;;;2.33;;
17714;SDS011;8977;50.902;4.314;2023-03-14T05:40:44;2.13;;;1.93;;
17714;SDS011;8977;50.902;4.314;2023-03-14T05:43:13;2.80;;;1.83;;
17714;SDS011;8977;50.902;4.314;2023-03-14T05:45:41;2.20;;;1.70;;
17714;SDS011;8977;50.902;4.314;2023-03-14T05:48:08;1.77;;;1.67;;
17714;SDS011;8977;50.902;4.314;2023-03-14T05:50:35;2.87;;;1.87;;
17714;SDS011;8977;50.902;4.314;2023-03-14T05:53:02;2.13;;;1.87;;
17714;SDS011;8977;50.902;4.314;2023-03-14T05:55:31;2.03;;;1.60;;
17714;SDS011;8977;50.902;4.314;2023-03-14T05:57:58;2.00;;;1.67;;
17714;SDS011;8977;50.902;4.314;2023-03-14T06:00:25;2.67;;;1.87;;
17714;SDS011;8977;50.902;4.314;2023-03-14T06:02:52;2.73;;;2.03;;
17714;SDS011;8977;50.902;4.314;2023-03-14T06:05:19;2.33;;;2.00;;
17714;SDS011;8977;50.902;4.314;2023-03-14T06:07:46;2.73;;;2.00;;
17714;SDS011;8977;50.902;4.314;2023-03-14T06:10:13;4.20;;;2.00;;
17714;SDS011;8977;50.902;4.314;2023-03-14T06:12:41;3.23;;;1.67;;
17714;SDS011;8977;50.902;4.314;2023-03-14T06:15:08;4.80;;;2.03;;
17714;SDS011;8977;50.902;4.314;2023-03-14T06:17:36;3.30;;;2.30;;
17714;SDS011;8977;50.902;4.314;2023-03-14T06:20:03;2.80;;;2.30;;
17714;SDS011;8977;50.902;4.314;2023-03-14T06:22:30;5.20;;;2.60;;
17714;SDS011;8977;50.902;4.314;2023-03-14T06:24:57;3.43;;;2.73;;
17714;SDS011;8977;50.902;4.314;2023-03-14T06:27:24;4.20;;;2.77;;
17714;SDS011;8977;50.902;4.314;2023-03-14T06:29:52;5.10;;;3.03;;
17714;SDS011;8977;50.902;4.314;2023-03-14T06:32:19;4.80;;;3.00;;
17714;SDS011;8977;50.902;4.314;2023-03-14T06:34:46;2.80;;;2.37;;
17714;SDS011;8977;50.902;4.314;2023-03-14T06:37:13;6.23;;;3.00;;
17714;SDS011;8977;50.902;4.314;2023-03-14T06:39:40;3.53;;;2.57;;
17714;SDS011;8977;50.902;4.314;2023-03-14T06:42:08;3.13;;;2.77;;
17714;SDS011;8977;50.902;4.314;2023-03-14T06:44:36;4.50;;;2.53;;
17714;SDS011;8977;50.902;4.314;2023-03-14T06:47:04;2.57;;;2.10;;
17714;SDS011;8977;50.902;4.314;2023-03-14T06:49:31;2.40;;;2.20;;
17714;SDS011;8977;50.902;4.314;2023-03-14T06:51:58;2.87;;;2.10;;
17714;SDS011;8977;50.902;4.314;2023-03-14T06:54:25;3.70;;;1.90;;
17714;SDS011;8977;50.902;4.314;2023-03-14T06:56:52;2.80;;;2.30;;
17714;SDS011;8977;50.902;4.314;2023-03-14T06:59:19;2.80;;;2.50;;
17714;SDS011;8977;50.902;4.314;2023-03-14T07:01:46;2.93;;;2.57;;
17714;SDS011;8977;50.902;4.314;2023-03-14T07:04:14;3.97;;;2.60;;
17714;SDS011;8977;50.902;4.314;2023-03-14T07:06:41;2.60;;;2.40;;
17714;SDS011;8977;50.902;4.314;2023-03-14T07:09:09;3.67;;;2.50;;
17714;SDS011;8977;50.902;4.314;2023-03-14T07:11:36;4.37;;;2.53;;
17714;SDS011;8977;50.902;4.314;2023-03-14T07:14:03;2.13;;;1.80;;
17714;SDS011;8977;50.902;4.314;2023-03-14T07:16:31;4.43;;;2.07;;
17714;SDS011;8977;50.902;4.314;2023-03-14T07:18:58;3.80;;;1.33;;
17714;SDS011;8977;50.902;4.314;2023-03-14T07:21:26;3.30;;;1.63;;
17714;SDS011;8977;50.902;4.314;2023-03-14T07:23:53;1.87;;;1.70;;
17714;SDS011;8977;50.902;4.314;2023-03-14T07:26:20;2.07;;;1.80;;
17714;SDS011;8977;50.902;4.314;2023-03-14T07:28:47;6.37;;;2.03;;
17714;SDS011;8977;50.902;4.314;2023-03-14T07:31:14;2.50;;;2.13;;
17714;SDS011;8977;50.902;4.314;2023-03-14T07:33:41;5.37;;;1.93;;
17714;SDS011;8977;50.902;4.314;2023-03-14T07:36:08;5.17;;;1.93;;
17714;SDS011;8977;50.902;4.314;2023-03-14T07:38:36;2.43;;;1.73;;
17714;SDS011;8977;50.902;4.314;2023-03-14T07:41:04;3.33;;;1.80;;
17714;SDS011;8977;50.902;4.314;2023-03-14T07:43:32;2.43;;;2.03;;
17714;SDS011;8977;50.902;4.314;2023-03-14T07:45:59;3.93;;;2.10;;
17714;SDS011;8977;50.902;4.314;2023-03-14T07:48:26;2.63;;;1.90;;
17714;SDS011;8977;50.902;4.314;2023-03-14T07:50:53;3.37;;;2.17;;
17714;SDS011;8977;50.902;4.314;2023-03-14T07:53:21;5.93;;;2.67;;
17714;SDS011;8977;50.902;4.314;2023-03-14T07:55:51;6.10;;;2.50;;
17714;SDS011;8977;50.902;4.314;2023-03-14T07:58:19;2.87;;;2.40;;
17714;SDS011;8977;50.902;4.314;2023-03-14T08:00:46;3.53;;;2.90;;
17714;SDS011;8977;50.902;4.314;2023-03-14T08:03:13;4.87;;;3.17;;
17714;SDS011;8977;50.902;4.314;2023-03-14T08:05:41;5.10;;;3.00;;
17714;SDS011;8977;50.902;4.314;2023-03-14T08:08:08;5.03;;;2.80;;
17714;SDS011;8977;50.902;4.314;2023-03-14T08:10:35;5.20;;;2.83;;
17714;SDS011;8977;50.902;4.314;2023-03-14T08:13:03;3.97;;;2.50;;
17714;SDS011;8977;50.902;4.314;2023-03-14T08:15:30;2.87;;;2.50;;
17714;SDS011;8977;50.902;4.314;2023-03-14T08:17:57;4.23;;;2.50;;
17714;SDS011;8977;50.902;4.314;2023-03-14T08:20:25;2.27;;;2.03;;
17714;SDS011;8977;50.902;4.314;2023-03-14T08:22:54;2.97;;;2.40;;
17714;SDS011;8977;50.902;4.314;2023-03-14T08:25:22;4.43;;;3.00;;
17714;SDS011;8977;50.902;4.314;2023-03-14T08:27:49;2.97;;;2.10;;
17714;SDS011;8977;50.902;4.314;2023-03-14T08:30:18;4.60;;;2.73;;
17714;SDS011;8977;50.902;4.314;2023-03-14T08:32:45;4.00;;;2.73;;
17714;SDS011;8977;50.902;4.314;2023-03-14T08:35:12;4.17;;;2.80;;
17714;SDS011;8977;50.902;4.314;2023-03-14T08:37:40;3.77;;;2.53;;
17714;SDS011;8977;50.902;4.314;2023-03-14T08:40:08;4.33;;;2.60;;
17714;SDS011;8977;50.902;4.314;2023-03-14T08:42:37;4.93;;;3.03;;
17714;SDS011;8977;50.902;4.314;2023-03-14T08:45:05;3.80;;;3.10;;
17714;SDS011;8977;50.902;4.314;2023-03-14T08:47:34;3.13;;;2.50;;
17714;SDS011;8977;50.902;4.314;2023-03-14T08:50:01;3.50;;;2.40;;
17714;SDS011;8977;50.902;4.314;2023-03-14T08:52:29;4.43;;;2.47;;
17714;SDS011;8977;50.902;4.314;2023-03-14T08:54:56;2.57;;;2.37;;
17714;SDS011;8977;50.902;4.314;2023-03-14T08:57:23;4.30;;;2.50;;
17714;SDS011;8977;50.902;4.314;2023-03-14T08:59:52;4.07;;;2.50;;
17714;SDS011;8977;50.902;4.314;2023-03-14T09:02:20;4.63;;;2.90;;
17714;SDS011;8977;50.902;4.314;2023-03-14T09:04:49;3.57;;;2.50;;
17714;SDS011;8977;50.902;4.314;2023-03-14T09:07:16;4.80;;;3.00;;
17714;SDS011;8977;50.902;4.314;2023-03-14T09:09:43;4.95;;;2.63;;
17714;SDS011;8977;50.902;4.314;2023-03-14T09:12:10;3.07;;;2.50;;
17714;SDS011;8977;50.902;4.314;2023-03-14T09:14:38;9.80;;;3.27;;
17714;SDS011;8977;50.902;4.314;2023-03-14T09:17:05;3.27;;;2.60;;
17714;SDS011;8977;50.902;4.314;2023-03-14T09:19:32;5.80;;;2.83;;
17714;SDS011;8977;50.902;4.314;2023-03-14T09:22:01;5.80;;;2.97;;
17714;SDS011;8977;50.902;4.314;2023-03-14T09:24:28;5.47;;;2.27;;
17714;SDS011;8977;50.902;4.314;2023-03-14T09:26:55;6.67;;;2.33;;
17714;SDS011;8977;50.902;4.314;2023-03-14T09:29:22;3.43;;;1.97;;
17714;SDS011;8977;50.902;4.314;2023-03-14T09:31:49;7.43;;;2.50;;
17714;SDS011;8977;50.902;4.314;2023-03-14T09:34:16;5.47;;;2.30;;
17714;SDS011;8977;50.902;4.314;2023-03-14T09:36:43;7.03;;;2.20;;
17714;SDS011;8977;50.902;4.314;2023-03-14T09:39:12;6.63;;;2.40;;
17714;SDS011;8977;50.902;4.314;2023-03-14T09:41:39;5.80;;;2.37;;
17714;SDS011;8977;50.902;4.314;2023-03-14T09:44:10;6.80;;;2.70;;
17714;SDS011;8977;50.902;4.314;2023-03-14T09:46:40;6.10;;;2.80;;
17714;SDS011;8977;50.902;4.314;2023-03-14T09:49:11;4.83;;;2.50;;
17714;SDS011;8977;50.902;4.314;2023-03-14T09:51:43;5.83;;;2.37;;
17714;SDS011;8977;50.902;4.314;2023-03-14T09:54:17;6.47;;;2.40;;
17714;SDS011;8977;50.902;4.314;2023-03-14T09:56:57;6.07;;;2.53;;
17714;SDS011;8977;50.902;4.314;2023-03-14T09:59:25;6.87;;;2.60;;
17714;SDS011;8977;50.902;4.314;2023-03-14T10:01:53;7.43;;;2.43;;
17714;SDS011;8977;50.902;4.314;2023-03-14T10:04:21;7.50;;;2.27;;
17714;SDS011;8977;50.902;4.314;2023-03-14T10:06:49;3.73;;;2.37;;
17714;SDS011;8977;50.902;4.314;2023-03-14T10:09:19;6.30;;;2.40;;
17714;SDS011;8977;50.902;4.314;2023-03-14T10:11:51;8.60;;;2.40;;
17714;SDS011;8977;50.902;4.314;2023-03-14T10:14:30;5.83;;;2.20;;
17714;SDS011;8977;50.902;4.314;2023-03-14T10:17:04;5.73;;;2.37;;
17714;SDS011;8977;50.902;4.314;2023-03-14T10:19:33;6.90;;;2.53;;
17714;SDS011;8977;50.902;4.314;2023-03-14T10:22:01;4.27;;;1.90;;
17714;SDS011;8977;50.902;4.314;2023-03-14T10:24:31;6.50;;;1.90;;
17714;SDS011;8977;50.902;4.314;2023-03-14T10:27:00;5.70;;;2.03;;
17714;SDS011;8977;50.902;4.314;2023-03-14T10:29:29;6.77;;;1.80;;
17714;SDS011;8977;50.902;4.314;2023-03-14T10:31:58;7.13;;;1.70;;
17714;SDS011;8977;50.902;4.314;2023-03-14T10:34:27;4.27;;;1.40;;
17714;SDS011;8977;50.902;4.314;2023-03-14T10:36:56;7.47;;;2.00;;
17714;SDS011;8977;50.902;4.314;2023-03-14T10:39:37;6.03;;;2.20;;
17714;SDS011;8977;50.902;4.314;2023-03-14T10:42:12;2.90;;;1.60;;
17714;SDS011;8977;50.902;4.314;2023-03-14T10:44:42;7.03;;;1.80;;
17714;SDS011;8977;50.902;4.314;2023-03-14T10:47:15;4.63;;;1.70;;
17714;SDS011;8977;50.902;4.314;2023-03-14T10:49:44;3.83;;;1.77;;
17714;SDS011;8977;50.902;4.314;2023-03-14T10:52:14;3.60;;;1.60;;
17714;SDS011;8977;50.902;4.314;2023-03-14T10:54:49;6.10;;;1.60;;
17714;SDS011;8977;50.902;4.314;2023-03-14T10:57:21;3.63;;;1.40;;
17714;SDS011;8977;50.902;4.314;2023-03-14T10:59:48;3.33;;;1.47;;
17714;SDS011;8977;50.902;4.314;2023-03-14T11:02:21;4.27;;;1.50;;
17714;SDS011;8977;50.902;4.314;2023-03-14T11:05:00;4.63;;;1.70;;
17714;SDS011;8977;50.902;4.314;2023-03-14T11:07:34;3.00;;;1.50;;
17714;SDS011;8977;50.902;4.314;2023-03-14T11:10:09;5.57;;;1.60;;
17714;SDS011;8977;50.902;4.314;2023-03-14T11:12:42;5.80;;;2.20;;
17714;SDS011;8977;50.902;4.314;2023-03-14T11:15:15;1.50;;;0.87;;
17714;SDS011;8977;50.902;4.314;2023-03-14T11:17:49;1.00;;;0.90;;
17714;SDS011;8977;50.902;4.314;2023-03-14T11:20:29;0.80;;;0.80;;
17714;SDS011;8977;50.902;4.314;2023-03-14T11:23:02;1.77;;;0.90;;
17714;SDS011;8977;50.902;4.314;2023-03-14T11:25:39;2.53;;;1.47;;
17714;SDS011;8977;50.902;4.314;2023-03-14T11:28:17;2.13;;;0.90;;
17714;SDS011;8977;50.902;4.314;2023-03-14T11:30:50;2.20;;;0.80;;
17714;SDS011;8977;50.902;4.314;2023-03-14T11:33:20;4.00;;;0.97;;
17714;SDS011;8977;50.902;4.314;2023-03-14T11:35:52;2.07;;;0.90;;
17714;SDS011;8977;50.902;4.314;2023-03-14T11:38:27;2.03;;;1.10;;
17714;SDS011;8977;50.902;4.314;2023-03-14T11:40:58;1.40;;;0.80;;
17714;SDS011;8977;50.902;4.314;2023-03-14T11:43:26;1.27;;;0.80;;
17714;SDS011;8977;50.902;4.314;2023-03-14T11:45:56;3.00;;;1.00;;
17714;SDS011;8977;50.902;4.314;2023-03-14T11:48:32;1.80;;;0.93;;
17714;SDS011;8977;50.902;4.314;2023-03-14T11:51:06;0.83;;;0.80;;
17714;SDS011;8977;50.902;4.314;2023-03-14T11:53:40;2.00;;;0.87;;
17714;SDS011;8977;50.902;4.314;2023-03-14T11:56:16;3.00;;;0.83;;
17714;SDS011;8977;50.902;4.314;2023-03-14T11:58:51;1.53;;;0.70;;
17714;SDS011;8977;50.902;4.314;2023-03-14T12:01:24;1.30;;;1.20;;
17714;SDS011;8977;50.902;4.314;2023-03-14T12:03:58;1.67;;;0.90;;
17714;SDS011;8977;50.902;4.314;2023-03-14T12:06:33;1.60;;;0.80;;
17714;SDS011;8977;50.902;4.314;2023-03-14T12:09:06;2.20;;;1.10;;
17714;SDS011;8977;50.902;4.314;2023-03-14T12:11:39;1.43;;;1.00;;
17714;SDS011;8977;50.902;4.314;2023-03-14T12:14:21;1.23;;;0.90;;
17714;SDS011;8977;50.902;4.314;2023-03-14T12:16:52;1.53;;;1.30;;
17714;SDS011;8977;50.902;4.314;2023-03-14T12:19:26;2.43;;;1.40;;
17714;SDS011;8977;50.902;4.314;2023-03-14T12:21:57;2.30;;;1.20;;
17714;SDS011;8977;50.902;4.314;2023-03-14T12:24:28;1.77;;;1.40;;
17714;SDS011;8977;50.902;4.314;2023-03-14T12:26:59;5.80;;;1.80;;
17714;SDS011;8977;50.902;4.314;2023-03-14T12:29:27;2.43;;;1.67;;
17714;SDS011;8977;50.902;4.314;2023-03-14T12:32:08;1.80;;;1.10;;
17714;SDS011;8977;50.902;4.314;2023-03-14T12:34:46;4.80;;;1.50;;
17714;SDS011;8977;50.902;4.314;2023-03-14T12:37:17;1.77;;;1.23;;
17714;SDS011;8977;50.902;4.314;2023-03-14T12:40:00;1.40;;;1.30;;
17714;SDS011;8977;50.902;4.314;2023-03-14T12:42:53;4.53;;;1.40;;
17714;SDS011;8977;50.902;4.314;2023-03-14T12:45:25;1.83;;;1.07;;
17714;SDS011;8977;50.902;4.314;2023-03-14T12:47:54;1.37;;;0.90;;
17714;SDS011;8977;50.902;4.314;2023-03-14T12:50:32;1.37;;;0.90;;
17714;SDS011;8977;50.902;4.314;2023-03-14T12:53:19;1.57;;;1.10;;
17714;SDS011;8977;50.902;4.314;2023-03-14T12:56:20;2.50;;;1.33;;
17714;SDS011;8977;50.902;4.314;2023-03-14T12:58:57;2.50;;;1.40;;
17714;SDS011;8977;50.902;4.314;2023-03-14T13:01:32;5.07;;;3.40;;
17714;SDS011;8977;50.902;4.314;2023-03-14T13:04:02;7.67;;;4.20;;
17714;SDS011;8977;50.902;4.314;2023-03-14T13:06:50;7.87;;;4.97;;
17714;SDS011;8977;50.902;4.314;2023-03-14T13:12:16;3.77;;;1.60;;
17714;SDS011;8977;50.902;4.314;2023-03-14T13:14:46;4.40;;;1.90;;
17714;SDS011;8977;50.902;4.314;2023-03-14T13:17:15;5.60;;;1.73;;
17714;SDS011;8977;50.902;4.314;2023-03-14T13:19:50;7.60;;;2.00;;
17714;SDS011;8977;50.902;4.314;2023-03-14T13:22:20;6.67;;;2.10;;
17714;SDS011;8977;50.902;4.314;2023-03-14T13:24:49;4.77;;;1.70;;
17714;SDS011;8977;50.902;4.314;2023-03-14T13:27:17;4.27;;;1.73;;
17714;SDS011;8977;50.902;4.314;2023-03-14T13:29:47;6.57;;;1.80;;
17714;SDS011;8977;50.902;4.314;2023-03-14T13:32:16;4.73;;;1.80;;
17714;SDS011;8977;50.902;4.314;2023-03-14T13:34:45;7.07;;;2.03;;
17714;SDS011;8977;50.902;4.314;2023-03-14T13:37:15;8.03;;;2.47;;
17714;SDS011;8977;50.902;4.314;2023-03-14T13:39:42;7.03;;;2.33;;
17714;SDS011;8977;50.902;4.314;2023-03-14T13:42:15;8.17;;;2.20;;
17714;SDS011;8977;50.902;4.314;2023-03-14T13:44:42;8.63;;;2.03;;
17714;SDS011;8977;50.902;4.314;2023-03-14T13:47:12;8.97;;;2.10;;
17714;SDS011;8977;50.902;4.314;2023-03-14T13:49:42;7.30;;;2.20;;
17714;SDS011;8977;50.902;4.314;2023-03-14T13:52:23;8.77;;;2.37;;
17714;SDS011;8977;50.902;4.314;2023-03-14T13:54:54;14.87;;;4.13;;
17714;SDS011;8977;50.902;4.314;2023-03-14T13:57:21;15.07;;;3.80;;
17714;SDS011;8977;50.902;4.314;2023-03-14T13:59:58;11.60;;;3.00;;
17714;SDS011;8977;50.902;4.314;2023-03-14T14:02:31;17.13;;;3.50;;
17714;SDS011;8977;50.902;4.314;2023-03-14T14:04:59;11.73;;;3.30;;
17714;SDS011;8977;50.902;4.314;2023-03-14T14:07:26;13.50;;;3.07;;
17714;SDS011;8977;50.902;4.314;2023-03-14T14:09:54;9.13;;;2.30;;
17714;SDS011;8977;50.902;4.314;2023-03-14T14:12:22;9.30;;;2.10;;
17714;SDS011;8977;50.902;4.314;2023-03-14T14:14:53;7.63;;;1.60;;
17714;SDS011;8977;50.902;4.314;2023-03-14T14:17:24;7.60;;;1.90;;
17714;SDS011;8977;50.902;4.314;2023-03-14T14:19:55;9.33;;;1.57;;
17714;SDS011;8977;50.902;4.314;2023-03-14T14:22:22;7.07;;;1.80;;
17714;SDS011;8977;50.902;4.314;2023-03-14T14:24:50;8.47;;;2.53;;
17714;SDS011;8977;50.902;4.314;2023-03-14T14:27:19;9.93;;;2.40;;
17714;SDS011;8977;50.902;4.314;2023-03-14T14:29:58;7.13;;;2.40;;
17714;SDS011;8977;50.902;4.314;2023-03-14T14:32:27;5.27;;;1.57;;
17714;SDS011;8977;50.902;4.314;2023-03-14T14:35:03;8.90;;;1.73;;
17714;SDS011;8977;50.902;4.314;2023-03-14T14:37:31;5.07;;;1.80;;
17714;SDS011;8977;50.902;4.314;2023-03-14T14:40:00;5.97;;;1.60;;
17714;SDS011;8977;50.902;4.314;2023-03-14T14:42:35;6.23;;;1.67;;
17714;SDS011;8977;50.902;4.314;2023-03-14T14:45:06;4.17;;;1.03;;
17714;SDS011;8977;50.902;4.314;2023-03-14T14:47:47;6.97;;;1.33;;
17714;SDS011;8977;50.902;4.314;2023-03-14T14:50:25;1.17;;;0.67;;
17714;SDS011;8977;50.902;4.314;2023-03-14T14:52:56;1.50;;;0.80;;
17714;SDS011;8977;50.902;4.314;2023-03-14T14:55:28;2.80;;;1.10;;
17714;SDS011;8977;50.902;4.314;2023-03-14T14:57:57;3.43;;;0.70;;
17714;SDS011;8977;50.902;4.314;2023-03-14T15:00:25;1.23;;;0.77;;
17714;SDS011;8977;50.902;4.314;2023-03-14T15:02:54;2.53;;;0.90;;
17714;SDS011;8977;50.902;4.314;2023-03-14T15:05:27;1.70;;;1.00;;
17714;SDS011;8977;50.902;4.314;2023-03-14T15:07:55;2.83;;;0.93;;
17714;SDS011;8977;50.902;4.314;2023-03-14T15:10:23;2.03;;;1.00;;
17714;SDS011;8977;50.902;4.314;2023-03-14T15:12:51;2.83;;;1.10;;
17714;SDS011;8977;50.902;4.314;2023-03-14T15:15:18;2.87;;;1.13;;
17714;SDS011;8977;50.902;4.314;2023-03-14T15:17:45;3.70;;;1.10;;
17714;SDS011;8977;50.902;4.314;2023-03-14T15:20:12;5.40;;;1.07;;